Time;durP1;ratioP1;P1;durP2;ratioP2;P2;SDS_P1;SDS_P2;PMS_P1;PMS_P2;Temp;Humidity;BMP_temperature;BMP_pressure;BME280_temperature;BME280_humidity;BME280_pressure;Samples;Min_cycle;Max_cycle;Signal;HPM_P1;HPM_P2
2021/09/16 04:39:33;;;;;;;170.72;77.55;;;;;;;8.62;73.16;100473.41;1627487;86;21677;-37
2021/09/16 04:42:10;;;;;;;166.47;72.75;;;;;;;8.67;73.09;100476.52;1611472;87;21099;-38
2021/09/16 04:44:39;;;;;;;144.13;64.97;;;;;;;8.72;73.31;100464.83;1619576;86;21428;-38
2021/09/16 04:47:10;;;;;;;144.50;58.42;;;;;;;8.78;73.21;100463.59;1606086;85;21113;-38
2021/09/16 04:49:40;;;;;;;103.95;45.12;;;;;;;8.86;73.22;100466.27;1636449;85;21467;-37
2021/09/16 04:52:10;;;;;;;89.50;40.00;;;;;;;8.99;73.12;100465.11;1632578;85;21046;-37
2021/09/16 04:54:41;;;;;;;85.03;37.17;;;;;;;9.12;72.71;100459.56;1544038;88;21159;-36
2021/09/16 04:57:22;;;;;;;62.73;30.48;;;;;;;9.24;72.56;100463.57;1578095;87;21085;-35
2021/09/16 04:59:50;;;;;;;73.47;31.15;;;;;;;9.43;72.42;100459.79;1579748;87;21111;-38
2021/09/16 05:02:37;;;;;;;64.00;28.65;;;;;;;9.64;71.85;100456.03;1567187;87;21664;-36
2021/09/16 05:05:16;;;;;;;55.88;26.10;;;;;;;9.84;71.24;100451.77;1591738;87;21077;-37
2021/09/16 05:08:20;;;;;;;57.98;27.67;;;;;;;10.08;70.58;100453.63;1568214;88;21658;-35
2021/09/16 05:13:28;;;;;;;55.45;23.55;;;;;;;10.37;69.74;100469.91;1594653;87;21454;-37
2021/09/16 05:16:18;;;;;;;37.75;17.23;;;;;;;10.35;69.44;100456.83;1608225;87;21100;-37
2021/09/16 05:37:58;;;;;;;18.40;9.05;;;;;;;11.27;67.29;100457.42;1590638;85;21187;-35
2021/09/16 05:40:26;;;;;;;13.80;8.25;;;;;;;11.53;65.09;100463.50;1621173;85;21673;-38
2021/09/16 05:42:56;;;;;;;14.30;8.65;;;;;;;11.69;64.76;100465.23;1602113;86;21206;-37
2021/09/16 05:45:48;;;;;;;18.77;9.00;;;;;;;11.85;64.31;100459.55;1581052;86;21064;-36
2021/09/16 05:48:23;;;;;;;14.98;8.68;;;;;;;12.08;63.69;100465.17;1581595;85;21574;-39
2021/09/16 05:50:53;;;;;;;17.80;8.50;;;;;;;12.30;62.88;100468.59;1622776;85;21064;-36
2021/09/16 05:53:25;;;;;;;18.77;9.48;;;;;;;12.46;61.82;100462.37;1611243;85;21518;-36
2021/09/16 05:56:03;;;;;;;18.32;9.08;;;;;;;12.60;60.94;100472.38;1591955;86;21072;-38
2021/09/16 05:58:34;;;;;;;22.42;9.68;;;;;;;12.69;60.64;100470.12;1592566;87;21673;-36
2021/09/16 06:07:50;;;;;;;23.22;9.38;;;;;;;13.03;60.54;100471.64;1594523;81;21647;-39
2021/09/16 06:10:32;;;;;;;22.87;8.53;;;;;;;13.16;60.39;100468.92;1722628;80;21511;-36
2021/09/16 06:13:07;;;;;;;25.77;9.25;;;;;;;13.31;60.04;100469.71;1683888;82;21052;-37
2021/09/16 06:15:37;;;;;;;19.00;8.78;;;;;;;13.46;59.38;100466.54;1637027;84;21053;-38
2021/09/16 06:21:54;;;;;;;23.07;9.15;;;;;;;13.73;58.67;100466.70;1657774;84;21643;-36
2021/09/16 06:46:04;;;;;;;15.85;7.75;;;;;;;14.84;57.79;100473.27;1626105;85;21121;-38
2021/09/16 06:57:06;;;;;;;27.02;11.65;;;;;;;15.55;55.86;100480.03;1686395;83;21488;-35
2021/09/16 07:06:09;;;;;;;29.45;12.82;;;;;;;16.01;54.95;100472.17;1693705;82;21087;-36
2021/09/16 07:09:29;;;;;;;37.38;15.60;;;;;;;16.18;54.47;100470.52;1686248;82;21085;-36
2021/09/16 07:12:43;;;;;;;18.30;8.35;;;;;;;16.37;53.23;100470.55;1626303;84;21683;-36
2021/09/16 07:23:29;;;;;;;12.65;6.75;;;;;;;17.24;47.79;100476.53;1584093;84;21239;-36
2021/09/16 07:25:57;;;;;;;20.40;8.90;;;;;;;17.40;45.83;100483.64;1581337;88;21832;-38
2021/09/16 07:34:08;;;;;;;15.88;5.53;;;;;;;17.77;46.11;100475.64;1644096;84;21230;-38
2021/09/16 07:37:01;;;;;;;10.88;4.47;;;;;;;17.85;43.62;100468.81;1602918;86;21201;-35
2021/09/16 07:39:37;;;;;;;17.23;6.62;;;;;;;17.97;43.28;100467.14;1649184;85;21060;-36
2021/09/16 07:44:58;;;;;;;8.08;4.67;;;;;;;18.15;41.36;100460.92;1660082;83;21080;-38
2021/09/16 07:49:50;;;;;;;8.85;3.50;;;;;;;18.44;39.28;100457.42;1692766;82;21102;-36
2021/09/16 07:56:47;;;;;;;7.95;3.10;;;;;;;18.79;36.42;100460.39;1663831;84;21446;-39
2021/09/16 08:00:15;;;;;;;5.50;2.20;;;;;;;19.03;35.48;100456.09;1632545;84;21147;-38
2021/09/16 08:03:17;;;;;;;6.40;2.83;;;;;;;19.24;33.40;100461.14;1627971;85;21259;-38
2021/09/16 08:05:50;;;;;;;5.40;2.47;;;;;;;19.34;33.45;100460.78;1647248;84;21116;-36
2021/09/16 08:14:50;;;;;;;4.80;2.20;;;;;;;19.56;33.71;100450.78;1526319;91;21200;-37
2021/09/16 08:18:14;;;;;;;6.67;2.40;;;;;;;19.64;33.87;100445.62;1544814;89;21272;-39
2021/09/16 08:21:08;;;;;;;5.62;2.47;;;;;;;19.74;34.21;100442.67;1560166;89;21120;-37
2021/09/16 08:24:29;;;;;;;5.17;2.30;;;;;;;19.85;33.47;100440.50;1586522;87;21565;-37
2021/09/16 08:27:47;;;;;;;5.10;2.47;;;;;;;19.90;33.54;100437.22;1578585;88;21766;-37
2021/09/16 08:36:51;;;;;;;5.08;2.45;;;;;;;20.05;33.08;100435.78;1580088;88;21186;-37
2021/09/16 08:41:50;;;;;;;7.95;2.60;;;;;;;20.23;34.80;100435.55;1596322;88;21579;-39
2021/09/16 08:44:22;;;;;;;7.37;2.70;;;;;;;20.36;34.17;100432.86;1551204;86;21181;-39
2021/09/16 08:46:53;;;;;;;5.00;2.08;;;;;;;20.50;33.97;100428.37;1586756;86;21066;-37
2021/09/16 08:49:25;;;;;;;;;;;;;;;20.60;32.89;100429.28;1556128;90;21195;-39
2021/09/16 08:52:08;;;;;;;4.28;2.37;;;;;;;20.74;32.90;100428.73;1564873;89;20391;-37
2021/09/16 08:54:42;;;;;;;3.52;1.85;;;;;;;20.78;32.76;100425.49;1566868;87;22823;-39
2021/09/16 08:57:27;;;;;;;13.45;2.40;;;;;;;20.77;32.14;100419.78;1593978;87;21179;-37
2021/09/16 08:59:59;;;;;;;7.45;2.70;;;;;;;20.75;31.64;100417.63;1560032;90;21180;-36
2021/09/16 09:17:35;;;;;;;8.00;2.72;;;;;;;21.03;34.33;100399.63;1643087;85;21156;-37
2021/09/16 09:20:17;;;;;;;33.10;16.87;;;;;;;21.10;34.51;100401.09;1623425;85;21021;-36
2021/09/16 09:23:10;;;;;;;13.50;5.10;;;;;;;21.13;34.21;100396.13;1641841;84;21259;-36
2021/09/16 09:25:54;;;;;;;6.45;3.10;;;;;;;21.16;33.25;100402.20;1651430;84;21588;-37
2021/09/16 09:31:02;;;;;;;3.55;2.00;;;;;;;21.32;33.40;100402.42;1686727;82;21019;-36
2021/09/16 09:33:34;;;;;;;6.25;2.02;;;;;;;21.35;33.41;100401.45;1619133;83;21665;-40
2021/09/16 09:36:09;;;;;;;5.12;2.17;;;;;;;21.40;33.71;100391.00;1653305;83;21068;-37
2021/09/16 09:39:01;;;;;;;4.37;1.98;;;;;;;21.47;33.82;100388.47;1671422;83;21551;-36
2021/09/16 09:41:37;;;;;;;4.92;1.62;;;;;;;21.56;33.31;100389.84;1671255;83;21089;-36
2021/09/16 09:44:21;;;;;;;6.28;1.82;;;;;;;21.64;32.37;100387.73;1657443;84;21453;-38
2021/09/16 09:46:54;;;;;;;5.17;1.95;;;;;;;21.56;32.60;100387.19;1674696;83;21662;-38
2021/09/16 09:49:34;;;;;;;6.33;2.12;;;;;;;21.43;32.44;100386.00;1675311;83;21107;-39
2021/09/16 09:52:07;;;;;;;3.45;2.00;;;;;;;21.39;32.45;100383.06;1638144;84;21088;-36
2021/09/16 09:54:38;;;;;;;5.67;1.90;;;;;;;21.35;32.50;100376.17;1668042;83;21025;-36
2021/09/16 09:57:18;;;;;;;3.45;2.00;;;;;;;21.31;32.48;100372.77;1659924;84;21100;-36
2021/09/16 09:59:52;;;;;;;2.45;1.60;;;;;;;21.30;32.18;100371.03;1639371;84;21614;-38
2021/09/16 10:02:24;;;;;;;2.70;1.85;;;;;;;21.35;31.90;100367.71;1656933;83;21579;-38
2021/09/16 10:04:55;;;;;;;8.80;2.12;;;;;;;21.42;32.36;100364.31;1594019;86;21523;-36
2021/09/16 10:07:38;;;;;;;4.65;2.35;;;;;;;21.47;31.52;100364.52;1608669;87;21218;-36
2021/09/16 10:10:10;;;;;;;3.40;1.87;;;;;;;21.50;31.57;100361.70;1641920;84;20981;-38
2021/09/16 10:12:58;;;;;;;9.73;1.77;;;;;;;21.56;32.04;100367.69;1680277;83;21646;-38
2021/09/16 10:15:49;;;;;;;4.28;1.82;;;;;;;21.70;32.39;100356.84;1603967;86;21021;-36
2021/09/16 10:18:24;;;;;;;5.92;2.10;;;;;;;21.99;31.93;100357.31;1652310;84;21143;-38
2021/09/16 10:20:59;;;;;;;3.95;1.57;;;;;;;22.29;31.30;100360.38;1680846;83;21657;-39
2021/09/16 10:26:44;;;;;;;2.90;2.00;;;;;;;22.95;30.77;100351.84;1685156;83;21154;-40
2021/09/16 10:29:32;;;;;;;2.83;1.77;;;;;;;23.50;30.04;100345.02;1596606;87;21164;-39
2021/09/16 10:32:14;;;;;;;2.25;1.75;;;;;;;24.13;28.08;100352.74;1571964;88;21158;-37
2021/09/16 10:38:45;;;;;;;6.40;1.72;;;;;;;24.89;26.83;100356.05;1601257;87;21166;-39
2021/09/16 10:45:51;;;;;;;7.25;2.62;;;;;;;26.28;25.73;100341.34;1552689;89;21209;-39
2021/09/16 10:49:29;;;;;;;4.45;2.12;;;;;;;26.89;23.98;100341.34;1511898;91;21250;-38
2021/09/16 11:03:06;;;;;;;8.95;3.02;;;;;;;28.16;21.86;100324.45;1486877;93;21169;-39
2021/09/16 11:05:48;;;;;;;6.85;3.47;;;;;;;28.53;21.43;100329.38;1516026;90;21186;-38
2021/09/16 11:09:20;;;;;;;2.67;2.35;;;;;;;28.83;21.17;100332.95;1553264;89;21159;-41
2021/09/16 11:12:06;;;;;;;4.47;2.10;;;;;;;29.02;20.86;100337.83;1523007;91;21151;-39
2021/09/16 11:14:40;;;;;;;8.28;2.30;;;;;;;28.69;20.80;100334.46;1556039;89;21150;-38
2021/09/16 11:17:21;;;;;;;5.08;2.15;;;;;;;28.36;21.73;100329.28;1578594;87;21135;-41
2021/09/16 11:19:58;;;;;;;6.17;2.52;;;;;;;27.97;21.42;100330.31;1518010;89;21269;-41
2021/09/16 11:22:27;;;;;;;4.97;1.92;;;;;;;27.59;22.59;100329.33;1557834;89;21047;-41
2021/09/16 11:25:04;;;;;;;3.65;2.52;;;;;;;27.30;22.91;100323.30;1585668;86;21031;-38
2021/09/16 11:27:40;;;;;;;7.12;3.47;;;;;;;27.05;22.72;100317.88;1615643;86;21227;-39
2021/09/16 11:30:20;;;;;;;5.62;2.33;;;;;;;26.82;23.28;100312.72;1611699;85;21124;-40
2021/09/16 11:32:58;;;;;;;3.58;1.85;;;;;;;26.62;23.83;100316.75;1641499;85;21120;-38
2021/09/16 11:35:43;;;;;;;3.90;1.92;;;;;;;26.31;24.09;100319.67;1604605;86;21028;-41
2021/09/16 11:40:50;;;;;;;4.15;2.12;;;;;;;25.54;24.15;100309.77;1585683;87;21556;-41
2021/09/16 11:43:24;;;;;;;6.30;2.10;;;;;;;25.30;24.69;100311.27;1572548;87;21133;-40
2021/09/16 11:46:30;;;;;;;8.90;2.30;;;;;;;25.02;25.49;100306.69;1633133;86;21081;-39
2021/09/16 11:49:04;;;;;;;9.63;2.10;;;;;;;24.89;25.61;100309.23;1604868;86;21154;-40
2021/09/16 11:51:55;;;;;;;5.00;2.00;;;;;;;24.73;26.34;100310.59;1597145;86;21080;31
2021/09/16 11:54:26;;;;;;;9.38;2.10;;;;;;;24.53;26.43;100305.56;1619945;86;21082;-38
2021/09/16 11:59:57;;;;;;;8.63;2.40;;;;;;;24.23;26.74;100306.30;1580796;87;21099;-39
2021/09/16 12:02:26;;;;;;;5.70;1.85;;;;;;;24.13;26.61;100307.31;1573023;89;21641;-38
2021/09/16 12:04:57;;;;;;;4.97;2.15;;;;;;;24.11;26.43;100302.98;1564734;88;21057;-38
2021/09/16 12:07:32;;;;;;;9.10;2.47;;;;;;;24.05;26.22;100300.17;1590708;88;21220;-39
2021/09/16 12:10:13;;;;;;;2.80;1.65;;;;;;;24.07;26.29;100304.98;1589618;88;21636;-42
2021/09/16 12:12:47;;;;;;;5.33;2.22;;;;;;;24.11;27.06;100301.64;1606997;86;21472;-41
2021/09/16 12:15:23;;;;;;;3.90;2.05;;;;;;;24.01;26.83;100304.47;1592307;87;21046;-41
2021/09/16 12:17:52;;;;;;;2.10;1.85;;;;;;;23.81;27.48;100298.86;1579008;88;21257;-38
2021/09/16 12:20:22;;;;;;;3.65;2.35;;;;;;;23.71;27.57;100294.96;1600981;87;20997;-41
2021/09/16 12:22:52;;;;;;;3.95;2.20;;;;;;;23.75;27.62;100295.19;1611018;87;21705;-41
2021/09/16 12:25:22;;;;;;;7.22;2.08;;;;;;;23.91;27.29;100289.41;1588409;88;21021;-41
2021/09/16 12:28:08;;;;;;;4.03;2.30;;;;;;;24.00;27.24;100284.87;1543653;89;21088;-38
2021/09/16 12:30:38;;;;;;;4.20;2.17;;;;;;;24.04;27.01;100286.44;1626071;86;21023;-38
2021/09/16 12:33:31;;;;;;;6.58;2.20;;;;;;;24.05;27.07;100279.28;1590037;87;21081;-38
2021/09/16 12:36:21;;;;;;;13.60;2.20;;;;;;;24.05;27.22;100276.61;1616394;85;21079;-38
2021/09/16 12:38:58;;;;;;;5.62;2.02;;;;;;;24.14;27.24;100272.09;1589349;88;22197;-38
2021/09/16 12:41:33;;;;;;;;;;;;;;;24.18;27.31;100267.41;1589115;88;21104;-38
2021/09/16 12:44:15;;;;;;;8.98;3.05;;;;;;;24.14;27.24;100267.61;1600515;87;20114;-38
2021/09/16 12:47:05;;;;;;;8.15;2.47;;;;;;;24.04;28.26;100266.39;1570828;88;21091;-40
2021/09/16 12:49:38;;;;;;;3.90;2.30;;;;;;;23.82;28.15;100265.38;1576489;87;21067;-41
2021/09/16 12:52:25;;;;;;;8.00;2.93;;;;;;;23.66;28.57;100260.97;1624360;86;21312;-38
2021/09/16 12:57:35;;;;;;;6.47;2.77;;;;;;;23.45;28.78;100258.97;1613094;86;21592;-42
2021/09/16 13:02:59;;;;;;;2.75;2.10;;;;;;;23.38;28.97;100253.11;1588770;87;21194;-37
2021/09/16 13:05:31;;;;;;;3.42;2.22;;;;;;;23.56;28.61;100248.58;1622162;87;21128;-38
2021/09/16 13:08:16;;;;;;;9.95;2.40;;;;;;;23.60;28.76;100260.34;1578981;88;21754;-37
2021/09/16 13:10:49;;;;;;;3.80;2.35;;;;;;;23.55;28.94;100256.20;1616249;86;21634;-37
2021/09/16 13:13:27;;;;;;;2.55;1.92;;;;;;;23.63;28.58;100254.00;1626669;87;21206;-37
2021/09/16 13:16:03;;;;;;;4.58;2.90;;;;;;;23.63;28.45;100249.52;1621434;87;21138;-39
2021/09/16 13:18:28;;;;;;;7.03;2.37;;;;;;;23.64;28.27;100249.04;1601301;86;21114;-40
2021/09/16 13:21:01;;;;;;;5.20;2.58;;;;;;;23.66;28.52;100255.18;1624820;87;21722;-39
2021/09/16 13:23:30;;;;;;;6.17;2.50;;;;;;;23.62;28.85;100254.47;1598301;87;21071;-38
2021/09/16 13:25:58;;;;;;;9.53;2.42;;;;;;;23.58;29.07;100256.02;1628097;87;21726;-39
2021/09/16 13:28:26;;;;;;;2.87;2.15;;;;;;;23.53;28.52;100254.92;1567307;88;21762;-38
2021/09/16 13:30:56;;;;;;;7.37;2.85;;;;;;;23.45;29.12;100253.63;1598154;87;21175;-39
2021/09/16 13:33:24;;;;;;;3.52;2.52;;;;;;;23.43;28.60;100255.06;1602153;87;21123;-38
2021/09/16 13:35:53;;;;;;;4.45;2.70;;;;;;;23.45;28.84;100248.30;1613919;87;21040;-36
2021/09/16 13:38:22;;;;;;;7.15;2.30;;;;;;;23.52;29.33;100253.69;1579532;87;21100;-38
2021/09/16 13:40:54;;;;;;;2.75;2.00;;;;;;;23.55;29.51;100255.73;1569170;89;21545;-36
2021/09/16 13:43:24;;;;;;;4.90;2.37;;;;;;;23.58;29.28;100252.88;1577530;88;21135;-37
2021/09/16 13:45:52;;;;;;;10.80;2.70;;;;;;;23.55;29.55;100248.19;1592408;89;21593;-39
2021/09/16 13:48:21;;;;;;;4.22;2.33;;;;;;;23.46;29.27;100255.35;1609584;88;21178;-37
